Search for airport 
image banner adimage banner adimage banner ad
image banner ad

PN51 - Summers Psnl Use

Located in Linesville, United States

ICAO - PN51, IATA -

Data provided by Airmate  

General information

Coordinates: N41°40'0" W80°24'59"
Elevation is 1040 feet MSL.
Magnetic variation is -08° East
View others Airports in Pennsylvania

Operational data

Special qualification required
Current time UTC:
Current local time:
Weather at : KGKJ - Port Meadville ( 17 km )
METAR: KGKJ 150453Z AUTO 24003KT 10SM CLR 14/13 A2990 RMK AO2 SLP122 T01390128 402220128
View NOTAMs / SUP AIP / TFR affecting this airport [VIEW]
Communications frequencies: [VIEW]

Runways:

Airport contact information

Address: Linesville United States

Satellite view of PN51